createdAt,value
2018-06-29T00:02:27.086Z,15.27
2018-06-29T00:04:55.297Z,13.40
2018-06-29T00:07:25.988Z,13.20
2018-06-29T00:09:54.345Z,13.47
2018-06-29T00:12:22.507Z,12.77
2018-06-29T00:14:50.668Z,13.40
2018-06-29T00:17:18.830Z,13.63
2018-06-29T00:19:46.801Z,13.80
2018-06-29T00:22:14.990Z,13.67
2018-06-29T00:24:43.141Z,13.37
2018-06-29T00:27:11.081Z,12.60
2018-06-29T00:29:39.225Z,11.20
2018-06-29T00:32:07.428Z,13.50
2018-06-29T00:34:35.581Z,13.50
2018-06-29T00:37:03.746Z,14.60
2018-06-29T00:39:31.898Z,13.83
2018-06-29T00:42:00.075Z,13.53
2018-06-29T00:44:28.217Z,13.30
2018-06-29T00:46:56.375Z,13.33
2018-06-29T00:49:24.529Z,12.90
2018-06-29T00:51:52.722Z,12.73
2018-06-29T00:54:20.875Z,12.20
2018-06-29T00:56:49.041Z,13.30
2018-06-29T00:59:17.254Z,12.10
2018-06-29T01:01:45.464Z,13.37
2018-06-29T01:04:13.716Z,12.97
2018-06-29T01:06:41.882Z,12.23
2018-06-29T01:09:12.009Z,13.30
2018-06-29T01:11:40.274Z,12.63
2018-06-29T01:14:08.859Z,13.23
2018-06-29T01:16:37.352Z,11.53
2018-06-29T01:19:05.361Z,12.40
2018-06-29T01:21:33.574Z,12.30
2018-06-29T01:24:02.178Z,12.20
2018-06-29T01:26:30.394Z,12.40
2018-06-29T01:28:58.589Z,10.23
2018-06-29T01:31:26.823Z,11.10
2018-06-29T01:33:55.018Z,11.20
2018-06-29T01:36:23.231Z,11.07
2018-06-29T01:38:51.445Z,12.20
2018-06-29T01:41:19.645Z,12.23
2018-06-29T01:43:47.849Z,11.27
2018-06-29T01:46:16.064Z,11.47
2018-06-29T01:48:44.279Z,11.70
2018-06-29T01:51:12.639Z,11.67
2018-06-29T01:53:40.845Z,10.40
2018-06-29T01:56:09.123Z,11.07
2018-06-29T01:58:37.335Z,11.83
2018-06-29T02:01:05.553Z,10.53
2018-06-29T02:03:33.745Z,11.33
2018-06-29T02:06:01.955Z,11.20
2018-06-29T02:08:29.905Z,10.20
2018-06-29T02:10:58.326Z,10.07
2018-06-29T02:13:26.556Z,10.17
2018-06-29T02:15:54.781Z,11.33
2018-06-29T02:18:22.995Z,9.07
2018-06-29T02:20:51.204Z,10.07
2018-06-29T02:23:19.160Z,9.63
2018-06-29T02:25:47.380Z,8.73
2018-06-29T02:28:15.603Z,8.40
2018-06-29T02:30:43.829Z,8.63
2018-06-29T02:33:12.012Z,8.77
2018-06-29T02:35:40.234Z,8.97
2018-06-29T02:38:08.199Z,8.60
2018-06-29T02:40:36.409Z,7.63
2018-06-29T02:43:04.661Z,7.50
2018-06-29T02:45:32.850Z,7.27
2018-06-29T02:48:01.063Z,7.53
2018-06-29T02:50:29.284Z,7.40
2018-06-29T02:52:57.483Z,8.30
2018-06-29T02:55:25.683Z,7.13
2018-06-29T02:57:53.880Z,7.43
2018-06-29T03:00:22.066Z,7.60
2018-06-29T03:02:50.216Z,7.70
2018-06-29T03:05:18.412Z,7.43
2018-06-29T03:07:46.565Z,7.37
2018-06-29T03:10:14.788Z,7.60
2018-06-29T03:12:42.951Z,7.13
2018-06-29T03:15:11.126Z,7.97
2018-06-29T03:17:39.042Z,9.27
2018-06-29T03:20:07.225Z,7.80
2018-06-29T03:22:35.372Z,7.10
2018-06-29T03:25:03.633Z,8.33
2018-06-29T03:27:32.153Z,7.80
2018-06-29T03:30:00.214Z,7.43
2018-06-29T03:32:28.381Z,8.77
2018-06-29T03:34:56.538Z,7.50
2018-06-29T03:37:24.922Z,7.80
2018-06-29T03:39:53.133Z,7.80
2018-06-29T03:42:21.296Z,8.47
2018-06-29T03:44:49.461Z,7.83
2018-06-29T03:47:17.618Z,8.07
2018-06-29T03:49:45.767Z,8.83
2018-06-29T03:52:13.960Z,8.27
2018-06-29T03:54:42.198Z,9.40
2018-06-29T03:57:10.421Z,9.40
2018-06-29T03:59:38.609Z,9.60
2018-06-29T04:02:06.807Z,10.63
2018-06-29T04:04:34.939Z,10.77
2018-06-29T04:07:03.097Z,12.40
2018-06-29T04:09:31.262Z,11.60
2018-06-29T04:11:59.427Z,10.17
2018-06-29T04:14:27.333Z,10.50
2018-06-29T04:16:55.517Z,11.00
2018-06-29T04:19:23.681Z,9.90
2018-06-29T04:21:51.829Z,9.90
2018-06-29T04:24:20.013Z,10.20
2018-06-29T04:26:48.217Z,9.60
2018-06-29T04:29:16.349Z,9.50
2018-06-29T04:31:44.522Z,9.70
2018-06-29T04:34:12.686Z,9.47
2018-06-29T04:36:40.844Z,8.60
2018-06-29T04:39:09.671Z,9.23
2018-06-29T04:41:37.851Z,9.93
2018-06-29T04:44:06.018Z,9.73
2018-06-29T04:46:34.205Z,8.80
2018-06-29T04:49:02.505Z,10.07
2018-06-29T04:51:30.764Z,9.90
2018-06-29T04:53:59.118Z,9.43
2018-06-29T04:56:27.335Z,10.53
2018-06-29T04:58:55.670Z,10.30
2018-06-29T05:01:23.894Z,11.80
2018-06-29T05:03:52.385Z,11.10
2018-06-29T05:06:20.321Z,10.97
2018-06-29T05:08:48.557Z,10.80
2018-06-29T05:11:16.775Z,10.37
2018-06-29T05:13:44.986Z,11.33
2018-06-29T05:16:13.228Z,10.03
2018-06-29T05:18:41.444Z,11.07
2018-06-29T05:21:09.652Z,9.30
2018-06-29T05:23:37.872Z,10.80
2018-06-29T05:26:06.282Z,9.43
2018-06-29T05:28:34.529Z,9.30
2018-06-29T05:31:02.751Z,9.70
2018-06-29T05:33:30.948Z,9.43
2018-06-29T05:35:59.243Z,8.60
2018-06-29T05:38:27.091Z,9.00
2018-06-29T05:40:55.320Z,8.20
2018-06-29T05:43:23.523Z,12.23
2018-06-29T05:45:51.763Z,8.73
2018-06-29T05:48:19.968Z,8.37
2018-06-29T05:50:48.193Z,7.77
2018-06-29T05:53:16.400Z,8.57
2018-06-29T05:55:44.603Z,7.60
2018-06-29T05:58:12.829Z,8.40
2018-06-29T06:00:40.787Z,7.77
2018-06-29T06:03:09.275Z,7.87
2018-06-29T06:05:37.608Z,8.07
2018-06-29T06:08:06.235Z,7.90
2018-06-29T06:10:34.174Z,8.13
2018-06-29T06:13:02.412Z,7.40
2018-06-29T06:15:30.656Z,7.63
2018-06-29T06:17:58.901Z,7.50
2018-06-29T06:20:28.337Z,6.80
2018-06-29T06:23:00.030Z,7.33
2018-06-29T06:25:28.246Z,6.93
2018-06-29T06:27:56.480Z,6.70
2018-06-29T06:30:24.727Z,6.37
2018-06-29T06:32:52.938Z,7.47
2018-06-29T06:35:21.137Z,6.87
2018-06-29T06:37:49.358Z,6.73
2018-06-29T06:40:17.555Z,7.27
2018-06-29T06:42:45.825Z,7.30
2018-06-29T06:45:14.022Z,7.40
2018-06-29T06:47:42.360Z,7.50
2018-06-29T06:50:10.617Z,7.90
2018-06-29T06:52:38.784Z,8.30
2018-06-29T06:55:07.034Z,8.20
2018-06-29T06:57:35.234Z,8.60
2018-06-29T07:00:03.528Z,8.77
2018-06-29T07:02:31.737Z,8.30
2018-06-29T07:04:59.937Z,8.63
2018-06-29T07:07:28.180Z,8.80
2018-06-29T07:09:56.403Z,10.60
2018-06-29T07:12:24.652Z,9.10
2018-06-29T07:14:52.809Z,8.10
2018-06-29T07:17:21.028Z,9.23
2018-06-29T07:19:49.221Z,9.50
2018-06-29T07:22:17.570Z,9.73
2018-06-29T07:24:45.818Z,8.47
2018-06-29T07:27:14.036Z,9.10
2018-06-29T07:29:42.236Z,8.40
2018-06-29T07:32:10.484Z,7.20
2018-06-29T07:34:38.679Z,7.07
2018-06-29T07:37:06.916Z,6.10
2018-06-29T07:39:35.118Z,5.37
2018-06-29T07:42:03.848Z,5.63
2018-06-29T07:44:32.048Z,4.70
2018-06-29T07:47:00.251Z,4.47
2018-06-29T07:49:28.463Z,4.60
2018-06-29T07:51:56.783Z,4.80
2018-06-29T07:54:24.982Z,4.87
2018-06-29T07:56:53.199Z,5.00
2018-06-29T07:59:21.392Z,4.40
2018-06-29T08:01:49.617Z,4.63
2018-06-29T08:04:17.840Z,4.63
2018-06-29T08:06:46.060Z,4.60
2018-06-29T08:09:14.279Z,4.67
2018-06-29T08:11:42.489Z,4.83
2018-06-29T08:14:10.842Z,4.47
2018-06-29T08:16:39.060Z,4.80
2018-06-29T08:19:07.258Z,4.90
2018-06-29T08:21:35.486Z,5.50
2018-06-29T08:24:03.426Z,5.37
2018-06-29T08:26:31.639Z,6.00
2018-06-29T08:28:59.873Z,5.43
2018-06-29T08:31:28.076Z,5.80
2018-06-29T08:33:56.274Z,5.97
2018-06-29T08:36:24.219Z,6.57
2018-06-29T08:38:52.431Z,6.00
2018-06-29T08:41:20.627Z,6.53
2018-06-29T08:43:48.837Z,7.40
2018-06-29T08:46:17.054Z,7.27
2018-06-29T08:48:45.246Z,6.87
2018-06-29T08:51:13.462Z,8.40
2018-06-29T08:53:41.684Z,7.53
2018-06-29T08:56:09.888Z,7.30
2018-06-29T08:58:38.056Z,6.73
2018-06-29T09:01:06.209Z,6.73
2018-06-29T09:03:34.355Z,8.10
2018-06-29T09:06:02.510Z,6.30
2018-06-29T09:08:30.668Z,7.40
2018-06-29T09:10:58.878Z,7.17
2018-06-29T09:13:26.985Z,8.07
2018-06-29T09:15:55.147Z,7.20
2018-06-29T09:18:23.298Z,7.93
2018-06-29T09:20:51.442Z,9.03
2018-06-29T09:23:19.598Z,7.80
2018-06-29T09:25:47.743Z,8.13
2018-06-29T09:28:15.914Z,8.30
2018-06-29T09:30:44.071Z,9.03
2018-06-29T09:33:12.286Z,7.37
2018-06-29T09:35:40.466Z,6.90
2018-06-29T09:38:08.634Z,7.90
2018-06-29T09:40:36.793Z,6.77
2018-06-29T09:43:05.113Z,7.87
2018-06-29T09:45:33.269Z,7.43
2018-06-29T09:48:01.534Z,8.33
2018-06-29T09:50:29.965Z,8.70
2018-06-29T09:52:58.124Z,8.33
2018-06-29T09:55:26.123Z,7.30
2018-06-29T09:57:54.367Z,8.80
2018-06-29T10:00:27.537Z,7.80
2018-06-29T10:02:56.655Z,8.57
2018-06-29T10:05:24.967Z,8.30
2018-06-29T10:07:53.167Z,7.03
2018-06-29T10:10:21.395Z,7.37
2018-06-29T10:12:49.706Z,6.30
2018-06-29T10:15:18.251Z,7.60
2018-06-29T10:17:46.405Z,7.50
2018-06-29T10:20:14.665Z,6.70
2018-06-29T10:22:42.722Z,7.57
2018-06-29T10:25:11.051Z,7.50
2018-06-29T10:27:39.027Z,6.50
2018-06-29T10:30:07.905Z,6.40
2018-06-29T10:32:36.191Z,6.60
2018-06-29T10:35:04.344Z,7.40
2018-06-29T10:37:32.264Z,6.90
2018-06-29T10:40:00.424Z,6.13
2018-06-29T10:42:28.592Z,7.13
2018-06-29T10:44:56.820Z,5.03
2018-06-29T10:47:24.958Z,4.73
2018-06-29T10:49:53.173Z,4.93
2018-06-29T10:52:21.337Z,4.47
2018-06-29T10:54:49.536Z,3.97
2018-06-29T10:57:17.642Z,4.27
2018-06-29T10:59:45.802Z,4.07
2018-06-29T11:02:13.969Z,3.30
2018-06-29T11:04:42.118Z,2.80
2018-06-29T11:07:10.270Z,3.60
2018-06-29T11:09:38.483Z,2.73
2018-06-29T11:12:06.639Z,4.27
2018-06-29T11:14:34.806Z,4.90
2018-06-29T11:17:02.959Z,4.97
2018-06-29T11:19:31.148Z,4.87
2018-06-29T11:21:59.292Z,3.93
2018-06-29T11:24:27.446Z,4.73
2018-06-29T11:26:55.617Z,5.60
2018-06-29T11:29:23.778Z,5.23
2018-06-29T11:31:51.912Z,6.77
2018-06-29T11:34:19.866Z,6.40
2018-06-29T11:36:48.105Z,6.27
2018-06-29T11:39:16.206Z,6.03
2018-06-29T11:41:44.351Z,5.30
2018-06-29T11:44:13.334Z,5.10
2018-06-29T11:46:41.236Z,6.20
2018-06-29T11:49:09.710Z,6.07
2018-06-29T11:51:38.003Z,5.93
2018-06-29T11:54:06.416Z,5.33
2018-06-29T11:56:34.571Z,5.93
2018-06-29T11:59:02.801Z,6.00
2018-06-29T12:01:31.277Z,6.03
2018-06-29T12:03:59.816Z,5.63
2018-06-29T12:06:28.011Z,5.53
2018-06-29T12:08:56.204Z,5.57
2018-06-29T12:11:24.592Z,4.87
2018-06-29T12:13:52.798Z,6.57
2018-06-29T12:16:20.994Z,5.60
2018-06-29T12:18:48.929Z,5.97
2018-06-29T12:21:17.129Z,5.80
2018-06-29T12:23:45.320Z,5.50
2018-06-29T12:26:13.259Z,6.10
2018-06-29T12:28:41.461Z,5.80
2018-06-29T12:31:09.407Z,6.20
2018-06-29T12:33:37.684Z,6.03
2018-06-29T12:36:06.015Z,6.37
2018-06-29T12:38:34.213Z,7.30
2018-06-29T12:41:02.428Z,5.50
2018-06-29T12:43:30.361Z,5.37
2018-06-29T12:45:58.601Z,5.90
2018-06-29T12:48:26.792Z,5.87
2018-06-29T12:50:55.126Z,5.23
2018-06-29T12:53:23.200Z,5.60
2018-06-29T12:55:51.499Z,4.90
2018-06-29T12:58:19.675Z,5.80
2018-06-29T13:00:47.894Z,5.77
2018-06-29T13:03:16.087Z,4.70
2018-06-29T13:05:44.125Z,5.83
2018-06-29T13:08:12.235Z,4.70
2018-06-29T13:10:40.456Z,6.27
2018-06-29T13:13:08.671Z,4.93
2018-06-29T13:15:36.884Z,5.27
2018-06-29T13:18:05.100Z,4.40
2018-06-29T13:20:33.286Z,5.00
2018-06-29T13:23:01.488Z,5.10
2018-06-29T13:25:29.695Z,5.50
2018-06-29T13:27:57.891Z,5.20
2018-06-29T13:30:26.111Z,5.27
2018-06-29T13:32:54.348Z,5.10
2018-06-29T13:35:22.554Z,6.10
2018-06-29T13:37:50.499Z,5.20
2018-06-29T13:40:18.715Z,4.73
2018-06-29T13:42:46.924Z,5.53
2018-06-29T13:45:15.164Z,5.53
2018-06-29T13:47:43.389Z,6.10
2018-06-29T13:50:11.588Z,6.30
2018-06-29T13:52:39.526Z,5.70
2018-06-29T13:55:07.798Z,5.80
2018-06-29T13:57:36.009Z,6.90
2018-06-29T14:00:04.536Z,6.60
2018-06-29T14:02:32.776Z,7.03
2018-06-29T14:05:01.013Z,5.23
2018-06-29T14:07:29.233Z,6.67
2018-06-29T14:09:57.471Z,8.47
2018-06-29T14:12:25.667Z,9.77
2018-06-29T14:14:53.907Z,10.03
2018-06-29T14:17:22.110Z,10.17
2018-06-29T14:19:50.361Z,10.00
2018-06-29T14:22:18.730Z,9.67
2018-06-29T14:24:46.942Z,8.60
2018-06-29T14:27:15.158Z,8.27
2018-06-29T14:29:43.362Z,7.83
2018-06-29T14:32:11.593Z,11.83
2018-06-29T14:34:39.851Z,13.80
2018-06-29T14:37:08.085Z,14.83
2018-06-29T14:39:36.318Z,13.87
2018-06-29T14:42:04.527Z,14.57
2018-06-29T14:44:32.743Z,15.10
2018-06-29T14:47:00.958Z,16.57
2018-06-29T14:49:29.159Z,15.13
2018-06-29T14:51:57.389Z,15.80
2018-06-29T14:54:25.602Z,16.33
2018-06-29T14:56:53.831Z,16.90
2018-06-29T14:59:22.050Z,14.13
2018-06-29T15:01:50.263Z,14.37
2018-06-29T15:04:18.474Z,14.87
2018-06-29T15:06:46.679Z,14.57
2018-06-29T15:09:14.895Z,14.03
2018-06-29T15:11:43.168Z,15.10
2018-06-29T15:14:11.376Z,15.00
2018-06-29T15:16:39.595Z,13.43
2018-06-29T15:19:07.798Z,14.13
2018-06-29T15:21:36.096Z,14.30
2018-06-29T15:24:04.258Z,13.60
2018-06-29T15:26:32.925Z,12.77
2018-06-29T15:29:01.135Z,11.27
2018-06-29T15:31:29.564Z,11.03
2018-06-29T15:33:57.740Z,11.97
2018-06-29T15:36:26.008Z,12.07
2018-06-29T15:38:54.208Z,10.00
2018-06-29T15:41:22.156Z,11.00
2018-06-29T15:43:50.468Z,11.20
2018-06-29T15:46:18.688Z,10.67
2018-06-29T15:48:46.918Z,10.57
2018-06-29T15:51:15.137Z,10.40
2018-06-29T15:53:43.344Z,9.97
2018-06-29T15:56:11.729Z,10.87
2018-06-29T15:58:40.111Z,10.13
2018-06-29T16:01:08.389Z,9.63
2018-06-29T16:03:36.608Z,10.93
2018-06-29T16:06:05.257Z,11.13
2018-06-29T16:08:33.471Z,9.70
2018-06-29T16:11:01.674Z,10.20
2018-06-29T16:13:29.637Z,10.07
2018-06-29T16:15:57.845Z,10.07
2018-06-29T16:18:26.166Z,8.73
2018-06-29T16:20:54.403Z,9.07
2018-06-29T16:23:22.598Z,8.33
2018-06-29T16:25:50.811Z,7.50
2018-06-29T16:28:19.027Z,7.43
2018-06-29T16:30:47.311Z,7.67
2018-06-29T16:33:15.527Z,7.93
2018-06-29T16:35:43.757Z,8.63
2018-06-29T16:38:11.987Z,9.03
2018-06-29T16:40:40.210Z,8.60
2018-06-29T16:43:08.412Z,8.17
2018-06-29T16:45:36.624Z,9.23
2018-06-29T16:48:04.876Z,9.83
2018-06-29T16:50:33.173Z,9.70
2018-06-29T16:53:01.346Z,10.00
2018-06-29T16:55:29.291Z,9.40
2018-06-29T16:57:57.507Z,8.97
2018-06-29T17:00:25.663Z,9.97
2018-06-29T17:02:53.599Z,9.63
2018-06-29T17:05:21.772Z,8.97
2018-06-29T17:07:49.933Z,9.57
2018-06-29T17:10:18.115Z,9.20
2018-06-29T17:12:46.275Z,8.67
2018-06-29T17:15:14.431Z,8.90
2018-06-29T17:17:42.607Z,8.80
2018-06-29T17:20:10.761Z,8.40
2018-06-29T17:22:38.974Z,7.93
2018-06-29T17:25:07.181Z,8.20
2018-06-29T17:27:35.282Z,9.87
2018-06-29T17:30:03.447Z,8.67
2018-06-29T17:32:31.598Z,9.10
2018-06-29T17:34:59.776Z,8.57
2018-06-29T17:37:28.116Z,11.03
2018-06-29T17:39:56.270Z,8.00
2018-06-29T17:42:24.432Z,8.70
2018-06-29T17:44:52.747Z,9.20
2018-06-29T17:47:20.898Z,9.00
2018-06-29T17:49:49.067Z,8.07
2018-06-29T17:52:17.236Z,8.50
2018-06-29T17:54:45.427Z,8.17
2018-06-29T17:57:14.038Z,8.87
2018-06-29T17:59:42.250Z,7.93
2018-06-29T18:02:10.347Z,9.50
2018-06-29T18:04:38.509Z,9.80
2018-06-29T18:07:06.740Z,9.53
2018-06-29T18:09:34.827Z,9.20
2018-06-29T18:12:02.764Z,10.10
2018-06-29T18:14:31.279Z,10.00
2018-06-29T18:16:59.208Z,8.87
2018-06-29T18:19:27.351Z,10.10
2018-06-29T18:21:55.508Z,9.37
2018-06-29T18:24:23.439Z,9.63
2018-06-29T18:26:51.600Z,9.30
2018-06-29T18:29:19.770Z,8.90
2018-06-29T18:31:47.945Z,9.57
2018-06-29T18:34:16.102Z,9.07
2018-06-29T18:36:44.484Z,8.57
2018-06-29T18:39:14.659Z,9.10
2018-06-29T18:41:42.949Z,8.40
2018-06-29T18:44:11.253Z,11.13
2018-06-29T18:46:40.138Z,9.90
2018-06-29T18:49:08.463Z,10.63
2018-06-29T18:51:37.156Z,9.33
2018-06-29T18:54:05.323Z,10.50
2018-06-29T18:56:33.462Z,10.90
2018-06-29T18:59:01.681Z,10.07
2018-06-29T19:01:29.691Z,10.67
2018-06-29T19:03:57.845Z,10.63
2018-06-29T19:06:26.089Z,10.60
2018-06-29T19:08:54.341Z,9.70
2018-06-29T19:11:22.575Z,10.60
2018-06-29T19:13:50.800Z,10.57
2018-06-29T19:16:19.010Z,11.07
2018-06-29T19:18:47.220Z,12.10
2018-06-29T19:21:15.432Z,10.73
2018-06-29T19:23:43.667Z,12.20
2018-06-29T19:26:11.853Z,12.73
2018-06-29T19:28:40.064Z,11.40
2018-06-29T19:31:08.262Z,12.87
2018-06-29T19:33:36.459Z,12.00
2018-06-29T19:36:04.752Z,12.10
2018-06-29T19:38:32.951Z,12.50
2018-06-29T19:41:01.172Z,12.33
2018-06-29T19:43:29.376Z,13.40
2018-06-29T19:45:57.585Z,12.80
2018-06-29T19:48:25.797Z,12.63
2018-06-29T19:50:54.063Z,12.00
2018-06-29T19:53:22.251Z,12.80
2018-06-29T19:55:50.469Z,12.70
2018-06-29T19:58:18.621Z,13.40
2018-06-29T20:00:46.782Z,13.10
2018-06-29T20:03:14.943Z,13.57
2018-06-29T20:05:43.108Z,13.20
2018-06-29T20:08:11.271Z,14.40
2018-06-29T20:10:39.453Z,13.73
2018-06-29T20:13:07.602Z,15.40
2018-06-29T20:15:35.527Z,14.27
2018-06-29T20:18:03.691Z,14.03
2018-06-29T20:20:32.020Z,14.80
2018-06-29T20:23:00.049Z,14.80
2018-06-29T20:25:28.201Z,14.80
2018-06-29T20:27:56.346Z,15.40
2018-06-29T20:30:24.499Z,13.87
2018-06-29T20:32:52.666Z,13.83
2018-06-29T20:35:20.819Z,13.33
2018-06-29T20:37:48.983Z,14.83
2018-06-29T20:40:17.151Z,15.07
2018-06-29T20:42:45.325Z,15.27
2018-06-29T20:45:13.496Z,15.40
2018-06-29T20:47:41.732Z,15.80
2018-06-29T20:50:09.876Z,14.77
2018-06-29T20:52:38.038Z,15.20
2018-06-29T20:55:06.247Z,13.40
2018-06-29T20:57:34.549Z,13.90
2018-06-29T21:00:02.975Z,13.47
2018-06-29T21:02:31.195Z,14.70
2018-06-29T21:04:59.414Z,13.83
2018-06-29T21:07:27.608Z,13.60
2018-06-29T21:09:55.850Z,13.83
2018-06-29T21:12:24.050Z,15.90
2018-06-29T21:14:52.278Z,14.60
2018-06-29T21:17:20.475Z,15.03
2018-06-29T21:19:48.690Z,15.43
2018-06-29T21:22:16.971Z,15.40
2018-06-29T21:24:45.177Z,14.83
2018-06-29T21:27:13.375Z,13.07
2018-06-29T21:29:41.590Z,13.00
2018-06-29T21:32:09.805Z,13.90
2018-06-29T21:34:38.032Z,12.17
2018-06-29T21:37:06.224Z,12.83
2018-06-29T21:39:34.167Z,14.57
2018-06-29T21:42:02.364Z,14.90
2018-06-29T21:44:30.583Z,13.50
2018-06-29T21:46:58.836Z,15.30
2018-06-29T21:49:27.048Z,14.07
2018-06-29T21:51:55.257Z,15.00
2018-06-29T21:54:23.215Z,13.57
2018-06-29T21:56:51.418Z,12.60
2018-06-29T21:59:19.578Z,13.80
2018-06-29T22:01:47.756Z,13.00
2018-06-29T22:04:15.727Z,13.40
2018-06-29T22:06:43.648Z,14.00
2018-06-29T22:09:11.789Z,13.30
2018-06-29T22:11:39.951Z,12.47
2018-06-29T22:14:08.135Z,12.83
2018-06-29T22:16:37.132Z,11.20
2018-06-29T22:19:05.509Z,10.70
2018-06-29T22:21:33.713Z,11.90
2018-06-29T22:24:01.863Z,10.47
2018-06-29T22:26:30.011Z,9.63
2018-06-29T22:28:58.162Z,11.13
2018-06-29T22:31:26.481Z,12.13
2018-06-29T22:33:54.644Z,13.03
2018-06-29T22:36:22.836Z,12.87
2018-06-29T22:38:50.981Z,13.00
2018-06-29T22:41:19.129Z,10.90
2018-06-29T22:43:47.285Z,12.30
2018-06-29T22:46:15.439Z,12.23
2018-06-29T22:48:43.587Z,11.40
2018-06-29T22:51:11.731Z,12.27
2018-06-29T22:53:39.898Z,12.20
2018-06-29T22:56:08.074Z,11.70
2018-06-29T22:58:36.284Z,11.80
2018-06-29T23:01:04.487Z,11.40
2018-06-29T23:03:38.165Z,10.90
2018-06-29T23:06:06.411Z,11.30
2018-06-29T23:08:34.590Z,12.03
2018-06-29T23:11:02.792Z,14.53
2018-06-29T23:13:31.041Z,13.07
2018-06-29T23:15:59.245Z,12.40
2018-06-29T23:18:27.450Z,12.33
2018-06-29T23:20:55.771Z,13.50
2018-06-29T23:23:23.968Z,13.10
2018-06-29T23:25:52.175Z,13.53
2018-06-29T23:28:20.399Z,13.80
2018-06-29T23:30:48.605Z,13.67
2018-06-29T23:33:16.831Z,13.97
2018-06-29T23:35:45.041Z,14.33
2018-06-29T23:38:13.268Z,12.57
2018-06-29T23:40:41.840Z,13.63
2018-06-29T23:43:10.052Z,12.17
2018-06-29T23:45:38.237Z,12.67
2018-06-29T23:48:06.540Z,13.63
2018-06-29T23:50:35.122Z,12.03
2018-06-29T23:53:03.642Z,12.20
2018-06-29T23:55:31.995Z,12.00
2018-06-29T23:58:00.207Z,11.67
